Time,TemperatureF,DewpointF,PressureIn,WindDirection,WindDirectionDegrees,WindSpeedMPH,WindSpeedGustMPH,Humidity,HourlyPrecipIn,Conditions,Clouds,dailyrainin,SoftwareType,DateUTC
2013-10-29 00:01:00,25.5,22.4,30.38,ESE,112,0.0,0.0,88,0.00,FEW,,0.00,WeatherDisplay:10.37,2013-10-29 04:01:00,
2013-10-29 00:02:00,25.7,22.9,30.38,SSE,158,0.0,0.0,89,0.00,FEW,,0.00,WeatherDisplay:10.37,2013-10-29 04:02:00,
2013-10-29 00:07:00,25.7,22.9,30.38,SE,135,0.0,0.0,89,0.00,FEW,,0.00,WeatherDisplay:10.37,2013-10-29 04:07:00,
2013-10-29 00:12:00,25.3,22.5,30.38,SE,135,0.0,0.0,89,0.00,FEW,,0.00,WeatherDisplay:10.37,2013-10-29 04:12:00,
2013-10-29 00:17:00,25.3,22.5,30.38,ESE,112,0.0,0.0,89,0.00,FEW,,0.00,WeatherDisplay:10.37,2013-10-29 04:17:00,
2013-10-29 00:22:00,25.3,22.5,30.38,ESE,112,0.0,0.0,89,0.00,FEW,,0.00,WeatherDisplay:10.37,2013-10-29 04:22:00,
2013-10-29 00:27:00,25.3,22.5,30.38,ESE,112,0.0,0.0,89,0.00,FEW,,0.00,WeatherDisplay:10.37,2013-10-29 04:27:00,
2013-10-29 00:32:00,25.3,22.5,30.38,East,90,0.0,0.0,89,0.00,FEW,,0.00,WeatherDisplay:10.37,2013-10-29 04:32:00,
2013-10-29 00:37:00,25.3,22.8,30.38,SSE,158,0.0,0.0,90,0.00,FEW,,0.00,WeatherDisplay:10.37,2013-10-29 04:37:00,
2013-10-29 00:42:00,25.3,22.8,30.38,SE,135,0.0,0.0,90,0.00,FEW,,0.00,WeatherDisplay:10.37,2013-10-29 04:42:00,
2013-10-29 00:47:00,25.0,22.5,30.38,SE,135,0.0,0.0,90,0.00,FEW,,0.00,WeatherDisplay:10.37,2013-10-29 04:47:00,
2013-10-29 00:52:00,25.0,22.5,30.39,ESE,112,0.0,0.0,90,0.00,FEW,,0.00,WeatherDisplay:10.37,2013-10-29 04:52:00,
2013-10-29 00:57:00,25.0,22.5,30.39,ESE,112,0.0,0.0,90,0.00,FEW,,0.00,WeatherDisplay:10.37,2013-10-29 04:57:00,
2013-10-29 01:02:00,25.2,22.7,30.39,SE,135,0.0,0.0,90,0.00,FEW,,0.00,WeatherDisplay:10.37,2013-10-29 05:02:00,
2013-10-29 01:07:00,25.3,23.3,30.39,SSE,158,0.0,0.0,92,0.00,FEW,,0.00,WeatherDisplay:10.37,2013-10-29 05:07:00,
2013-10-29 01:12:00,25.3,23.3,30.39,SSE,158,0.0,0.0,92,0.00,FEW,,0.00,WeatherDisplay:10.37,2013-10-29 05:12:00,
2013-10-29 01:17:00,25.2,23.2,30.39,West,270,0.0,0.0,92,0.00,FEW,,0.00,WeatherDisplay:10.37,2013-10-29 05:17:00,
2013-10-29 01:22:00,24.8,22.5,30.39,ESE,112,0.0,0.0,91,0.00,FEW,,0.00,WeatherDisplay:10.37,2013-10-29 05:22:00,
2013-10-29 01:27:00,25.2,23.2,30.40,SSE,158,0.0,0.0,92,0.00,FEW,,0.00,WeatherDisplay:10.37,2013-10-29 05:27:00,
2013-10-29 01:32:00,25.5,23.5,30.40,SW,225,0.0,0.0,92,0.00,FEW,,0.00,WeatherDisplay:10.37,2013-10-29 05:32:00,
2013-10-29 01:37:00,25.0,23.0,30.40,ENE,68,0.0,0.0,92,0.00,FEW,,0.00,WeatherDisplay:10.37,2013-10-29 05:37:00,
2013-10-29 01:42:00,25.2,23.2,30.40,ESE,112,0.0,0.0,92,0.00,FEW,,0.00,WeatherDisplay:10.37,2013-10-29 05:42:00,
2013-10-29 01:47:00,25.5,23.5,30.40,East,90,0.0,0.0,92,0.00,FEW,,0.00,WeatherDisplay:10.37,2013-10-29 05:47:00,
2013-10-29 01:52:00,26.2,24.5,30.40,SSE,158,0.0,0.0,93,0.00,FEW,,0.00,WeatherDisplay:10.37,2013-10-29 05:52:00,
2013-10-29 01:57:00,26.8,25.0,30.40,SSE,158,0.0,0.0,93,0.00,FEW,,0.00,WeatherDisplay:10.37,2013-10-29 05:57:00,
2013-10-29 02:02:00,26.8,25.0,30.40,East,90,0.4,1.7,93,0.00,SCT,,0.00,WeatherDisplay:10.37,2013-10-29 06:02:00,
2013-10-29 02:07:00,26.8,25.0,30.40,South,180,0.1,1.1,93,0.00,SCT,,0.00,WeatherDisplay:10.37,2013-10-29 06:07:00,
2013-10-29 02:12:00,27.0,25.2,30.40,East,90,0.1,1.7,93,0.00,SCT,,0.00,WeatherDisplay:10.37,2013-10-29 06:12:00,
2013-10-29 02:17:00,27.1,25.3,30.40,ENE,68,0.1,1.7,93,0.00,SCT,,0.00,WeatherDisplay:10.37,2013-10-29 06:17:00,
2013-10-29 02:22:00,27.3,25.5,30.40,NE,45,0.2,1.1,93,0.00,SCT,,0.00,WeatherDisplay:10.37,2013-10-29 06:22:00,
2013-10-29 02:27:00,27.3,25.5,30.40,East,90,1.1,2.2,93,0.00,SCT,,0.00,WeatherDisplay:10.37,2013-10-29 06:27:00,
2013-10-29 02:32:00,27.5,25.7,30.40,NE,45,0.0,0.0,93,0.00,SCT,,0.00,WeatherDisplay:10.37,2013-10-29 06:32:00,
2013-10-29 02:37:00,27.5,25.7,30.40,ESE,112,0.0,0.0,93,0.00,SCT,,0.00,WeatherDisplay:10.37,2013-10-29 06:37:00,
2013-10-29 02:42:00,27.5,25.7,30.41,NW,315,0.3,1.1,93,0.00,SCT,,0.00,WeatherDisplay:10.37,2013-10-29 06:42:00,
2013-10-29 02:47:00,27.7,25.9,30.41,South,180,0.0,0.0,93,0.00,SCT,,0.00,WeatherDisplay:10.37,2013-10-29 06:47:00,
2013-10-29 02:52:00,28.2,26.2,30.41,SE,135,2.3,2.3,92,0.00,SCT,,0.00,WeatherDisplay:10.37,2013-10-29 06:52:00,
2013-10-29 02:57:00,28.4,26.1,30.41,ESE,112,0.9,1.1,91,0.00,SCT,,0.00,WeatherDisplay:10.37,2013-10-29 06:57:00,
2013-10-29 03:02:00,28.2,25.9,30.41,SE,135,0.9,2.3,91,0.00,BKN,,0.00,WeatherDisplay:10.37,2013-10-29 07:02:00,
2013-10-29 03:07:00,28.6,26.3,30.41,SE,135,0.0,0.0,91,0.00,BKN,,0.00,WeatherDisplay:10.37,2013-10-29 07:07:00,
2013-10-29 03:12:00,28.6,26.0,30.41,SE,135,2.6,2.7,90,0.00,BKN,,0.00,WeatherDisplay:10.37,2013-10-29 07:12:00,
2013-10-29 03:17:00,29.1,26.5,30.41,SE,135,1.2,3.5,90,0.00,BKN,,0.00,WeatherDisplay:10.37,2013-10-29 07:17:00,
2013-10-29 03:22:00,28.9,26.1,30.41,ENE,68,0.0,0.0,89,0.00,BKN,,0.00,WeatherDisplay:10.37,2013-10-29 07:22:00,
2013-10-29 03:27:00,28.8,26.2,30.41,ESE,112,1.8,2.3,90,0.00,BKN,,0.00,WeatherDisplay:10.37,2013-10-29 07:27:00,
2013-10-29 03:32:00,28.9,26.3,30.41,ESE,112,0.0,0.0,90,0.00,BKN,,0.00,WeatherDisplay:10.37,2013-10-29 07:32:00,
2013-10-29 03:37:00,29.1,26.5,30.41,East,90,1.9,2.2,90,0.00,BKN,,0.00,WeatherDisplay:10.37,2013-10-29 07:37:00,
2013-10-29 03:42:00,29.1,26.5,30.40,ESE,112,0.1,1.7,90,0.00,BKN,,0.00,WeatherDisplay:10.37,2013-10-29 07:42:00,
2013-10-29 03:47:00,29.5,26.7,30.40,SSE,158,0.0,0.0,89,0.00,BKN,,0.00,WeatherDisplay:10.37,2013-10-29 07:47:00,
2013-10-29 03:52:00,29.7,26.6,30.41,West,270,0.0,1.1,88,0.00,BKN,,0.00,WeatherDisplay:10.37,2013-10-29 07:52:00,
2013-10-29 03:57:00,29.7,26.6,30.41,SE,135,2.0,2.3,88,0.00,BKN,,0.00,WeatherDisplay:10.37,2013-10-29 07:57:00,
2013-10-29 04:02:00,29.7,26.9,30.41,West,270,2.2,2.3,89,0.00,BKN,,0.00,WeatherDisplay:10.37,2013-10-29 08:02:00,
2013-10-29 04:07:00,29.7,26.9,30.41,East,90,0.0,0.0,89,0.00,BKN,,0.00,WeatherDisplay:10.37,2013-10-29 08:07:00,
2013-10-29 04:12:00,29.5,26.7,30.41,SSE,158,2.0,2.3,89,0.00,BKN,,0.00,WeatherDisplay:10.37,2013-10-29 08:12:00,
2013-10-29 04:17:00,29.7,26.9,30.41,West,270,0.0,0.0,89,0.00,BKN,,0.00,WeatherDisplay:10.37,2013-10-29 08:17:00,
2013-10-29 04:22:00,29.5,26.7,30.41,SSE,158,0.0,0.0,89,0.00,BKN,,0.00,WeatherDisplay:10.37,2013-10-29 08:22:00,
2013-10-29 04:27:00,28.9,26.1,30.41,East,90,0.0,0.0,89,0.00,BKN,,0.00,WeatherDisplay:10.37,2013-10-29 08:27:00,
2013-10-29 04:32:00,28.8,26.0,30.41,ESE,112,0.0,0.0,89,0.00,BKN,,0.00,WeatherDisplay:10.37,2013-10-29 08:32:00,
2013-10-29 04:37:00,28.2,25.4,30.41,East,90,0.0,0.0,89,0.00,BKN,,0.00,WeatherDisplay:10.37,2013-10-29 08:37:00,
2013-10-29 04:42:00,28.0,25.4,30.41,East,90,0.0,0.0,90,0.00,BKN,,0.00,WeatherDisplay:10.37,2013-10-29 08:42:00,
2013-10-29 04:47:00,28.0,25.7,30.41,ESE,112,0.0,0.0,91,0.00,BKN,,0.00,WeatherDisplay:10.37,2013-10-29 08:47:00,
2013-10-29 04:52:00,28.0,25.7,30.40,SSE,158,0.0,0.0,91,0.00,BKN,,0.00,WeatherDisplay:10.37,2013-10-29 08:52:00,
2013-10-29 04:57:00,27.9,25.6,30.40,SE,135,0.0,0.0,91,0.00,BKN,,0.00,WeatherDisplay:10.37,2013-10-29 08:57:00,
2013-10-29 05:02:00,27.7,25.4,30.40,ESE,112,0.0,0.0,91,0.00,OVC,,0.00,WeatherDisplay:10.37,2013-10-29 09:02:00,
2013-10-29 05:07:00,27.3,25.0,30.41,East,90,0.0,0.0,91,0.00,OVC,,0.00,WeatherDisplay:10.37,2013-10-29 09:07:00,
2013-10-29 05:12:00,27.3,25.0,30.41,East,90,0.0,0.0,91,0.00,OVC,,0.00,WeatherDisplay:10.37,2013-10-29 09:12:00,
2013-10-29 05:17:00,27.1,24.8,30.40,East,90,1.9,2.3,91,0.00,OVC,,0.00,WeatherDisplay:10.37,2013-10-29 09:17:00,
2013-10-29 05:22:00,27.7,25.7,30.40,ESE,112,2.0,2.3,92,0.00,OVC,,0.00,WeatherDisplay:10.37,2013-10-29 09:22:00,
2013-10-29 05:27:00,27.9,25.9,30.40,SSE,158,1.4,1.4,92,0.00,OVC,,0.00,WeatherDisplay:10.37,2013-10-29 09:27:00,
2013-10-29 05:32:00,27.9,25.9,30.40,South,180,0.0,0.0,92,0.00,OVC,,0.00,WeatherDisplay:10.37,2013-10-29 09:32:00,
2013-10-29 05:37:00,28.6,26.6,30.40,SW,225,0.0,0.0,92,0.00,OVC,,0.00,WeatherDisplay:10.37,2013-10-29 09:37:00,
2013-10-29 05:42:00,28.6,26.6,30.41,SW,225,0.0,0.0,92,0.00,OVC,,0.00,WeatherDisplay:10.37,2013-10-29 09:42:00,
2013-10-29 05:47:00,28.6,26.6,30.41,SE,135,0.0,0.0,92,0.00,OVC,,0.00,WeatherDisplay:10.37,2013-10-29 09:47:00,
2013-10-29 05:52:00,28.6,26.6,30.41,South,180,0.0,0.0,92,0.00,OVC,,0.00,WeatherDisplay:10.37,2013-10-29 09:52:00,
2013-10-29 05:57:00,28.6,26.3,30.41,East,90,1.5,2.2,91,0.00,OVC,,0.00,WeatherDisplay:10.37,2013-10-29 09:57:00,
2013-10-29 06:02:00,28.6,26.3,30.41,ESE,112,1.1,1.7,91,0.00,BKN,,0.00,WeatherDisplay:10.37,2013-10-29 10:02:00,
2013-10-29 06:07:00,28.8,26.5,30.42,SW,225,0.0,1.1,91,0.00,BKN,,0.00,WeatherDisplay:10.37,2013-10-29 10:07:00,
2013-10-29 06:12:00,28.8,26.5,30.42,SE,135,0.0,0.0,91,0.00,BKN,,0.00,WeatherDisplay:10.37,2013-10-29 10:12:00,
2013-10-29 06:17:00,28.8,26.5,30.42,SE,135,0.9,1.1,91,0.00,BKN,,0.00,WeatherDisplay:10.37,2013-10-29 10:17:00,
2013-10-29 06:22:00,28.8,26.5,30.42,ESE,112,0.6,1.7,91,0.00,BKN,,0.00,WeatherDisplay:10.37,2013-10-29 10:22:00,
2013-10-29 06:27:00,28.8,26.5,30.42,NE,45,1.2,1.2,91,0.00,BKN,,0.00,WeatherDisplay:10.37,2013-10-29 10:27:00,
2013-10-29 06:32:00,28.8,26.5,30.42,SE,135,1.5,2.3,91,0.00,BKN,,0.00,WeatherDisplay:10.37,2013-10-29 10:32:00,
2013-10-29 06:37:00,28.8,26.5,30.42,ESE,112,1.6,2.2,91,0.00,BKN,,0.00,WeatherDisplay:10.37,2013-10-29 10:37:00,
2013-10-29 06:42:00,28.8,26.5,30.43,ESE,112,2.3,2.3,91,0.00,BKN,,0.00,WeatherDisplay:10.37,2013-10-29 10:42:00,
2013-10-29 06:47:00,28.8,26.5,30.43,SSW,202,0.0,1.1,91,0.00,BKN,,0.00,WeatherDisplay:10.37,2013-10-29 10:47:00,
2013-10-29 06:52:00,28.4,26.1,30.43,NNE,22,0.0,0.0,91,0.00,BKN,,0.00,WeatherDisplay:10.37,2013-10-29 10:52:00,
2013-10-29 06:57:00,28.0,25.7,30.43,East,90,0.3,1.1,91,0.00,BKN,,0.00,WeatherDisplay:10.37,2013-10-29 10:57:00,
2013-10-29 07:02:00,28.0,25.7,30.42,SSE,158,1.7,1.7,91,0.00,BKN,,0.00,WeatherDisplay:10.37,2013-10-29 11:02:00,
2013-10-29 07:07:00,28.0,25.7,30.42,SSW,202,0.0,0.0,91,0.00,BKN,,0.00,WeatherDisplay:10.37,2013-10-29 11:07:00,
2013-10-29 07:12:00,27.7,25.4,30.42,South,180,0.0,0.0,91,0.00,BKN,,0.00,WeatherDisplay:10.37,2013-10-29 11:12:00,
2013-10-29 07:17:00,27.7,25.4,30.43,WSW,248,0.3,1.1,91,0.00,BKN,,0.00,WeatherDisplay:10.37,2013-10-29 11:17:00,
2013-10-29 07:22:00,27.1,24.8,30.43,West,270,0.0,0.0,91,0.00,BKN,,0.00,WeatherDisplay:10.37,2013-10-29 11:22:00,
2013-10-29 07:27:00,27.0,24.7,30.43,North,360,0.0,0.0,91,0.00,BKN,,0.00,WeatherDisplay:10.37,2013-10-29 11:27:00,
2013-10-29 07:32:00,26.8,24.5,30.43,ESE,112,0.0,0.0,91,0.00,BKN,,0.00,WeatherDisplay:10.37,2013-10-29 11:32:00,
2013-10-29 07:37:00,26.6,24.6,30.43,West,270,0.0,0.0,92,0.00,BKN,,0.00,WeatherDisplay:10.37,2013-10-29 11:37:00,
2013-10-29 07:42:00,26.6,24.6,30.43,South,180,0.0,0.0,92,0.00,BKN,,0.00,WeatherDisplay:10.37,2013-10-29 11:42:00,
2013-10-29 07:47:00,26.6,24.6,30.43,ESE,112,2.3,2.7,92,0.00,BKN,,0.00,WeatherDisplay:10.37,2013-10-29 11:47:00,
2013-10-29 07:52:00,26.4,24.7,30.42,ESE,112,1.5,2.3,93,0.00,BKN,,0.00,WeatherDisplay:10.37,2013-10-29 11:52:00,
2013-10-29 07:57:00,26.6,24.8,30.42,ENE,68,0.5,1.1,93,0.00,BKN,,0.00,WeatherDisplay:10.37,2013-10-29 11:57:00,
2013-10-29 08:02:00,26.4,24.7,30.42,East,90,0.1,1.7,93,0.00,SCT,,0.00,WeatherDisplay:10.37,2013-10-29 12:02:00,
2013-10-29 08:07:00,26.6,24.8,30.43,SE,135,0.0,1.1,93,0.00,SCT,,0.00,WeatherDisplay:10.37,2013-10-29 12:07:00,
2013-10-29 08:12:00,27.1,25.3,30.43,SSW,202,0.0,0.0,93,0.00,SCT,,0.00,WeatherDisplay:10.37,2013-10-29 12:12:00,
2013-10-29 08:17:00,26.8,25.0,30.44,West,270,0.0,0.0,93,0.00,SCT,,0.00,WeatherDisplay:10.37,2013-10-29 12:17:00,
2013-10-29 08:22:00,27.0,25.2,30.44,East,90,2.5,2.7,93,0.00,SCT,,0.00,WeatherDisplay:10.37,2013-10-29 12:22:00,
2013-10-29 08:27:00,27.7,25.9,30.43,ESE,112,3.2,3.5,93,0.00,SCT,,0.00,WeatherDisplay:10.37,2013-10-29 12:27:00,
2013-10-29 08:32:00,28.9,27.1,30.43,SE,135,4.0,4.6,93,0.00,SCT,,0.00,WeatherDisplay:10.37,2013-10-29 12:32:00,
2013-10-29 08:37:00,29.7,27.1,30.43,ESE,112,3.2,3.5,90,0.00,SCT,,0.00,WeatherDisplay:10.37,2013-10-29 12:37:00,
2013-10-29 08:42:00,30.6,27.5,30.43,NE,45,3.4,3.5,88,0.00,SCT,,0.00,WeatherDisplay:10.37,2013-10-29 12:42:00,
2013-10-29 08:47:00,31.6,27.9,30.43,ESE,112,2.7,3.2,86,0.00,SCT,,0.00,WeatherDisplay:10.37,2013-10-29 12:47:00,
2013-10-29 08:52:00,32.2,27.6,30.44,ESE,112,2.7,2.7,83,0.00,SCT,,0.00,WeatherDisplay:10.37,2013-10-29 12:52:00,
2013-10-29 08:57:00,33.1,27.9,30.44,ESE,112,3.5,3.5,81,0.00,SCT,,0.00,WeatherDisplay:10.37,2013-10-29 12:57:00,
2013-10-29 09:02:00,34.0,27.9,30.44,ESE,112,2.8,3.5,78,0.00,SCT,,0.00,WeatherDisplay:10.37,2013-10-29 13:02:00,
2013-10-29 09:07:00,35.1,28.0,30.43,ESE,112,2.4,3.5,75,0.00,SCT,,0.00,WeatherDisplay:10.37,2013-10-29 13:07:00,
2013-10-29 09:12:00,34.9,27.5,30.43,ESE,112,3.3,3.5,74,0.00,SCT,,0.00,WeatherDisplay:10.37,2013-10-29 13:12:00,
2013-10-29 09:17:00,35.8,27.7,30.44,SE,135,2.6,2.7,72,0.00,SCT,,0.00,WeatherDisplay:10.37,2013-10-29 13:17:00,
2013-10-29 09:22:00,36.1,27.6,30.44,ESE,112,2.8,3.5,71,0.00,SCT,,0.00,WeatherDisplay:10.37,2013-10-29 13:22:00,
2013-10-29 09:27:00,37.8,28.2,30.45,East,90,3.0,3.5,68,0.00,SCT,,0.00,WeatherDisplay:10.37,2013-10-29 13:27:00,
2013-10-29 09:32:00,38.8,28.8,30.45,ESE,112,1.4,2.3,67,0.00,SCT,,0.00,WeatherDisplay:10.37,2013-10-29 13:32:00,
2013-10-29 09:37:00,40.3,29.1,30.45,ESE,112,2.2,2.3,64,0.00,SCT,,0.00,WeatherDisplay:10.37,2013-10-29 13:37:00,
2013-10-29 09:42:00,41.5,28.6,30.45,NE,45,2.3,3.5,60,0.00,SCT,,0.00,WeatherDisplay:10.37,2013-10-29 13:42:00,
2013-10-29 09:47:00,41.9,29.0,30.45,East,90,3.0,3.5,60,0.00,SCT,,0.00,WeatherDisplay:10.37,2013-10-29 13:47:00,
2013-10-29 09:52:00,42.6,28.8,30.45,ESE,112,3.5,4.6,58,0.00,SCT,,0.00,WeatherDisplay:10.37,2013-10-29 13:52:00,
2013-10-29 09:57:00,41.9,28.2,30.45,ESE,112,3.0,3.5,58,0.00,SCT,,0.00,WeatherDisplay:10.37,2013-10-29 13:57:00,
2013-10-29 10:02:00,43.0,29.2,30.45,NE,45,2.5,3.5,58,0.00,SCT,,0.00,WeatherDisplay:10.37,2013-10-29 14:02:00,
2013-10-29 10:07:00,43.2,30.2,30.45,ENE,68,2.2,4.2,60,0.00,SCT,,0.00,WeatherDisplay:10.37,2013-10-29 14:07:00,
2013-10-29 10:12:00,43.9,29.2,30.45,ESE,112,3.0,4.6,56,0.00,SCT,,0.00,WeatherDisplay:10.37,2013-10-29 14:12:00,
2013-10-29 10:17:00,43.5,29.3,30.45,ENE,68,2.0,3.5,57,0.00,SCT,,0.00,WeatherDisplay:10.37,2013-10-29 14:17:00,
2013-10-29 10:22:00,44.2,28.6,30.45,ESE,112,1.9,3.2,54,0.00,SCT,,0.00,WeatherDisplay:10.37,2013-10-29 14:22:00,
2013-10-29 10:27:00,43.9,28.3,30.45,SE,135,3.6,3.6,54,0.00,SCT,,0.00,WeatherDisplay:10.37,2013-10-29 14:27:00,
2013-10-29 10:32:00,43.7,28.6,30.45,SE,135,2.9,2.9,55,0.00,SCT,,0.00,WeatherDisplay:10.37,2013-10-29 14:32:00,
2013-10-29 10:37:00,43.3,29.1,30.45,South,180,2.8,4.6,57,0.00,SCT,,0.00,WeatherDisplay:10.37,2013-10-29 14:37:00,
2013-10-29 10:42:00,43.5,28.8,30.44,East,90,2.3,3.5,56,0.00,SCT,,0.00,WeatherDisplay:10.37,2013-10-29 14:42:00,
2013-10-29 10:47:00,43.2,28.5,30.44,East,90,4.5,5.8,56,0.00,SCT,,0.00,WeatherDisplay:10.37,2013-10-29 14:47:00,
2013-10-29 10:52:00,43.3,28.2,30.44,SE,135,2.7,2.7,55,0.00,SCT,,0.00,WeatherDisplay:10.37,2013-10-29 14:52:00,
2013-10-29 10:57:00,44.4,28.8,30.44,ESE,112,4.1,5.8,54,0.00,SCT,,0.00,WeatherDisplay:10.37,2013-10-29 14:57:00,
2013-10-29 11:02:00,44.8,28.2,30.44,ESE,112,5.3,6.8,52,0.00,SCT,,0.00,WeatherDisplay:10.37,2013-10-29 15:02:00,
2013-10-29 11:07:00,45.0,27.9,30.43,East,90,5.0,5.8,51,0.00,SCT,,0.00,WeatherDisplay:10.37,2013-10-29 15:07:00,
2013-10-29 11:12:00,46.2,28.6,30.43,SE,135,3.1,3.5,50,0.00,SCT,,0.00,WeatherDisplay:10.37,2013-10-29 15:12:00,
2013-10-29 11:17:00,46.2,27.1,30.43,SE,135,4.7,5.8,47,0.00,SCT,,0.00,WeatherDisplay:10.37,2013-10-29 15:17:00,
2013-10-29 11:22:00,46.0,26.9,30.43,SE,135,4.8,5.8,47,0.00,SCT,,0.00,WeatherDisplay:10.37,2013-10-29 15:22:00,
2013-10-29 11:27:00,46.6,26.9,30.42,East,90,3.5,5.8,46,0.00,SCT,,0.00,WeatherDisplay:10.37,2013-10-29 15:27:00,
2013-10-29 11:32:00,47.3,27.0,30.42,SSE,158,3.7,5.8,45,0.00,SCT,,0.00,WeatherDisplay:10.37,2013-10-29 15:32:00,
2013-10-29 11:37:00,47.3,27.0,30.42,ESE,112,2.9,3.7,45,0.00,SCT,,0.00,WeatherDisplay:10.37,2013-10-29 15:37:00,
2013-10-29 11:42:00,48.6,26.5,30.42,East,90,2.1,3.5,42,0.00,SCT,,0.00,WeatherDisplay:10.37,2013-10-29 15:42:00,
2013-10-29 11:47:00,49.3,25.4,30.42,East,90,1.4,3.5,39,0.00,SCT,,0.00,WeatherDisplay:10.37,2013-10-29 15:47:00,
2013-10-29 11:52:00,50.2,25.5,30.42,ESE,112,1.5,3.7,38,0.00,SCT,,0.00,WeatherDisplay:10.37,2013-10-29 15:52:00,
2013-10-29 11:57:00,49.3,24.1,30.42,NW,315,2.7,3.5,37,0.00,SCT,,0.00,WeatherDisplay:10.37,2013-10-29 15:57:00,
2013-10-29 12:02:00,49.8,23.2,30.42,South,180,0.6,1.7,35,0.00,SCT,,0.00,WeatherDisplay:10.37,2013-10-29 16:02:00,
2013-10-29 12:07:00,50.2,24.2,30.43,ESE,112,4.8,4.8,36,0.00,SCT,,0.00,WeatherDisplay:10.37,2013-10-29 16:07:00,
2013-10-29 12:12:00,51.1,23.7,30.43,WSW,248,1.8,3.5,34,0.00,SCT,,0.00,WeatherDisplay:10.37,2013-10-29 16:12:00,
2013-10-29 12:17:00,51.3,23.1,30.43,West,270,0.9,2.3,33,0.00,SCT,,0.00,WeatherDisplay:10.37,2013-10-29 16:17:00,
2013-10-29 12:22:00,50.4,24.4,30.43,East,90,0.8,2.7,36,0.00,SCT,,0.00,WeatherDisplay:10.37,2013-10-29 16:22:00,
2013-10-29 12:27:00,50.9,22.8,30.42,ESE,112,4.4,5.8,33,0.00,SCT,,0.00,WeatherDisplay:10.37,2013-10-29 16:27:00,
2013-10-29 12:32:00,52.0,23.8,30.42,NNE,22,2.0,2.3,33,0.00,SCT,,0.00,WeatherDisplay:10.37,2013-10-29 16:32:00,
2013-10-29 12:37:00,51.3,24.5,30.42,NNE,22,2.1,2.3,35,0.00,SCT,,0.00,WeatherDisplay:10.37,2013-10-29 16:37:00,
2013-10-29 12:42:00,52.5,23.5,30.41,SE,135,2.3,4.7,32,0.00,SCT,,0.00,WeatherDisplay:10.37,2013-10-29 16:42:00,
2013-10-29 12:47:00,52.9,23.0,30.41,WSW,248,3.0,3.5,31,0.00,SCT,,0.00,WeatherDisplay:10.37,2013-10-29 16:47:00,
2013-10-29 12:52:00,53.4,22.7,30.41,NNE,22,1.6,3.5,30,0.00,SCT,,0.00,WeatherDisplay:10.37,2013-10-29 16:52:00,
2013-10-29 12:57:00,53.4,22.7,30.41,WSW,248,4.5,5.8,30,0.00,SCT,,0.00,WeatherDisplay:10.37,2013-10-29 16:57:00,
2013-10-29 13:02:00,51.1,23.7,30.40,SE,135,2.5,3.7,34,0.00,SCT,,0.00,WeatherDisplay:10.37,2013-10-29 17:02:00,
2013-10-29 13:07:00,52.7,23.6,30.40,ENE,68,2.8,3.5,32,0.00,SCT,,0.00,WeatherDisplay:10.37,2013-10-29 17:07:00,
2013-10-29 13:12:00,51.8,22.8,30.40,SE,135,3.4,3.7,32,0.00,SCT,,0.00,WeatherDisplay:10.37,2013-10-29 17:12:00,
2013-10-29 13:17:00,50.2,23.6,30.40,SSE,158,2.4,3.7,35,0.00,SCT,,0.00,WeatherDisplay:10.37,2013-10-29 17:17:00,
2013-10-29 13:22:00,47.7,22.7,30.40,SE,135,2.6,4.6,37,0.00,SCT,,0.00,WeatherDisplay:10.37,2013-10-29 17:22:00,
2013-10-29 13:27:00,48.6,22.8,30.39,West,270,2.7,3.5,36,0.00,SCT,,0.00,WeatherDisplay:10.37,2013-10-29 17:27:00,
2013-10-29 13:32:00,49.3,23.4,30.39,ENE,68,2.9,3.5,36,0.00,SCT,,0.00,WeatherDisplay:10.37,2013-10-29 17:32:00,
2013-10-29 13:37:00,49.3,23.4,30.39,SSE,158,0.0,0.0,36,0.00,SCT,,0.00,WeatherDisplay:10.37,2013-10-29 17:37:00,
2013-10-29 13:42:00,52.0,25.2,30.38,West,270,2.6,3.5,35,0.00,SCT,,0.00,WeatherDisplay:10.37,2013-10-29 17:42:00,
2013-10-29 13:47:00,51.8,24.3,30.38,WSW,248,1.8,4.2,34,0.00,SCT,,0.00,WeatherDisplay:10.37,2013-10-29 17:47:00,
2013-10-29 13:52:00,52.3,23.3,30.37,SSW,202,3.3,3.5,32,0.00,SCT,,0.00,WeatherDisplay:10.37,2013-10-29 17:52:00,
2013-10-29 13:57:00,52.3,23.3,30.37,West,270,2.9,4.6,32,0.00,SCT,,0.00,WeatherDisplay:10.37,2013-10-29 17:57:00,
2013-10-29 14:02:00,51.6,22.7,30.37,SW,225,3.1,3.5,32,0.00,SCT,,0.00,WeatherDisplay:10.37,2013-10-29 18:02:00,
2013-10-29 14:07:00,50.9,24.2,30.37,NW,315,3.7,3.7,35,0.00,SCT,,0.00,WeatherDisplay:10.37,2013-10-29 18:07:00,
2013-10-29 14:12:00,51.1,23.7,30.37,NE,45,2.6,3.5,34,0.00,BKN,,0.00,WeatherDisplay:10.37,2013-10-29 18:12:00,
2013-10-29 14:17:00,52.0,23.0,30.36,WNW,292,3.0,3.5,32,0.00,BKN,,0.00,WeatherDisplay:10.37,2013-10-29 18:17:00,
2013-10-29 14:22:00,52.5,24.2,30.36,NW,315,3.0,4.6,33,0.00,BKN,,0.00,WeatherDisplay:10.37,2013-10-29 18:22:00,
2013-10-29 14:27:00,51.4,22.5,30.36,South,180,2.4,3.5,32,0.00,BKN,,0.00,WeatherDisplay:10.37,2013-10-29 18:27:00,
2013-10-29 14:32:00,49.8,23.2,30.36,SSE,158,4.1,4.7,35,0.00,BKN,,0.00,WeatherDisplay:10.37,2013-10-29 18:32:00,
2013-10-29 14:37:00,49.8,24.5,30.36,North,360,2.5,3.7,37,0.00,BKN,,0.00,WeatherDisplay:10.37,2013-10-29 18:37:00,
2013-10-29 14:42:00,53.1,24.0,30.35,East,90,1.3,3.5,32,0.00,BKN,,0.00,WeatherDisplay:10.37,2013-10-29 18:42:00,
2013-10-29 14:47:00,53.6,25.2,30.35,West,270,3.8,4.2,33,0.00,BKN,,0.00,WeatherDisplay:10.37,2013-10-29 18:47:00,
2013-10-29 14:52:00,53.8,23.8,30.35,WNW,292,4.2,4.7,31,0.00,BKN,,0.00,WeatherDisplay:10.37,2013-10-29 18:52:00,
2013-10-29 14:57:00,53.4,23.5,30.35,West,270,5.5,6.9,31,0.00,BKN,,0.00,WeatherDisplay:10.37,2013-10-29 18:57:00,
2013-10-29 15:02:00,52.0,23.8,30.35,WNW,292,5.1,6.9,33,0.00,BKN,,0.00,WeatherDisplay:10.37,2013-10-29 19:02:00,
2013-10-29 15:07:00,51.8,24.3,30.35,WSW,248,2.4,2.7,34,0.00,BKN,,0.00,WeatherDisplay:10.37,2013-10-29 19:07:00,
2013-10-29 15:12:00,52.3,24.0,30.35,SW,225,4.0,4.6,33,0.00,BKN,,0.00,WeatherDisplay:10.37,2013-10-29 19:12:00,
2013-10-29 15:17:00,52.9,23.8,30.35,West,270,5.0,5.8,32,0.00,BKN,,0.00,WeatherDisplay:10.37,2013-10-29 19:17:00,
2013-10-29 15:22:00,52.0,23.8,30.35,West,270,5.4,5.8,33,0.00,BKN,,0.00,WeatherDisplay:10.37,2013-10-29 19:22:00,
2013-10-29 15:27:00,50.5,23.1,30.34,South,180,2.2,2.7,34,0.00,BKN,,0.00,WeatherDisplay:10.37,2013-10-29 19:27:00,
2013-10-29 15:32:00,51.4,23.9,30.34,West,270,2.5,3.5,34,0.00,BKN,,0.00,WeatherDisplay:10.37,2013-10-29 19:32:00,
2013-10-29 15:37:00,52.7,23.6,30.34,North,360,2.3,3.5,32,0.00,BKN,,0.00,WeatherDisplay:10.37,2013-10-29 19:37:00,
2013-10-29 15:42:00,53.2,23.3,30.33,SSE,158,0.7,1.1,31,0.00,BKN,,0.00,WeatherDisplay:10.37,2013-10-29 19:42:00,
2013-10-29 15:47:00,52.9,23.8,30.33,SSW,202,0.3,1.1,32,0.00,BKN,,0.00,WeatherDisplay:10.37,2013-10-29 19:47:00,
2013-10-29 15:52:00,53.2,23.3,30.33,SW,225,4.7,5.8,31,0.00,BKN,,0.00,WeatherDisplay:10.37,2013-10-29 19:52:00,
2013-10-29 15:57:00,52.0,23.8,30.33,NW,315,1.4,2.3,33,0.00,BKN,,0.00,WeatherDisplay:10.37,2013-10-29 19:57:00,
2013-10-29 16:02:00,51.6,23.4,30.34,SW,225,2.6,4.6,33,0.00,BKN,,0.00,WeatherDisplay:10.37,2013-10-29 20:02:00,
2013-10-29 16:07:00,51.8,23.6,30.34,WNW,292,4.4,4.6,33,0.00,BKN,,0.00,WeatherDisplay:10.37,2013-10-29 20:07:00,
2013-10-29 16:12:00,51.1,23.7,30.34,SW,225,2.8,3.5,34,0.00,BKN,,0.00,WeatherDisplay:10.37,2013-10-29 20:12:00,
2013-10-29 16:17:00,52.0,23.8,30.33,SSE,158,1.7,2.3,33,0.00,BKN,,0.00,WeatherDisplay:10.37,2013-10-29 20:17:00,
2013-10-29 16:22:00,51.1,24.4,30.33,WNW,292,2.7,4.6,35,0.00,BKN,,0.00,WeatherDisplay:10.37,2013-10-29 20:22:00,
2013-10-29 16:27:00,50.9,24.2,30.33,NW,315,2.3,3.5,35,0.00,BKN,,0.00,WeatherDisplay:10.37,2013-10-29 20:27:00,
2013-10-29 16:32:00,51.1,24.4,30.33,West,270,3.5,4.6,35,0.00,BKN,,0.00,WeatherDisplay:10.37,2013-10-29 20:32:00,
2013-10-29 16:37:00,51.4,23.9,30.33,WSW,248,3.1,3.5,34,0.00,BKN,,0.00,WeatherDisplay:10.37,2013-10-29 20:37:00,
2013-10-29 16:42:00,51.6,24.1,30.33,WSW,248,5.0,5.8,34,0.00,BKN,,0.00,WeatherDisplay:10.37,2013-10-29 20:42:00,
2013-10-29 16:47:00,52.0,23.8,30.33,SW,225,3.2,5.3,33,0.00,BKN,,0.00,WeatherDisplay:10.37,2013-10-29 20:47:00,
2013-10-29 16:52:00,50.9,24.2,30.33,WSW,248,4.2,5.8,35,0.00,BKN,,0.00,WeatherDisplay:10.37,2013-10-29 20:52:00,
2013-10-29 16:57:00,49.3,23.4,30.33,WNW,292,3.4,5.8,36,0.00,BKN,,0.00,WeatherDisplay:10.37,2013-10-29 20:57:00,
2013-10-29 17:02:00,48.6,23.5,30.33,West,270,2.0,3.5,37,0.00,BKN,,0.00,WeatherDisplay:10.37,2013-10-29 21:02:00,
2013-10-29 17:07:00,48.6,23.5,30.33,SW,225,3.2,3.5,37,0.00,BKN,,0.00,WeatherDisplay:10.37,2013-10-29 21:07:00,
2013-10-29 17:12:00,48.2,23.7,30.33,WSW,248,2.3,4.6,38,0.00,BKN,,0.00,WeatherDisplay:10.37,2013-10-29 21:12:00,
2013-10-29 17:17:00,47.8,23.4,30.33,SW,225,3.7,4.2,38,0.00,BKN,,0.00,WeatherDisplay:10.37,2013-10-29 21:17:00,
2013-10-29 17:22:00,47.3,22.9,30.33,WSW,248,3.7,5.8,38,0.00,BKN,,0.00,WeatherDisplay:10.37,2013-10-29 21:22:00,
2013-10-29 17:27:00,46.8,23.1,30.33,WSW,248,2.3,4.6,39,0.00,BKN,,0.00,WeatherDisplay:10.37,2013-10-29 21:27:00,
2013-10-29 17:32:00,46.8,23.7,30.33,WSW,248,1.6,1.6,40,0.00,BKN,,0.00,WeatherDisplay:10.37,2013-10-29 21:32:00,
2013-10-29 17:37:00,46.6,24.1,30.33,West,270,0.0,0.0,41,0.00,BKN,,0.00,WeatherDisplay:10.37,2013-10-29 21:37:00,
2013-10-29 17:42:00,46.2,23.8,30.33,SW,225,2.5,3.5,41,0.00,BKN,,0.00,WeatherDisplay:10.37,2013-10-29 21:42:00,
2013-10-29 17:47:00,46.2,23.8,30.33,West,270,1.7,2.3,41,0.00,BKN,,0.00,WeatherDisplay:10.37,2013-10-29 21:47:00,
2013-10-29 17:52:00,46.0,23.6,30.33,SSW,202,1.0,2.3,41,0.00,BKN,,0.00,WeatherDisplay:10.37,2013-10-29 21:52:00,
2013-10-29 17:57:00,45.7,23.3,30.33,WSW,248,0.0,0.0,41,0.00,BKN,,0.00,WeatherDisplay:10.37,2013-10-29 21:57:00,
2013-10-29 18:02:00,45.3,23.5,30.33,SW,225,0.0,0.0,42,0.00,BKN,,0.00,WeatherDisplay:10.37,2013-10-29 22:02:00,
2013-10-29 18:07:00,45.0,23.8,30.33,West,270,0.0,0.0,43,0.00,BKN,,0.00,WeatherDisplay:10.37,2013-10-29 22:07:00,
2013-10-29 18:12:00,44.6,24.0,30.33,WSW,248,0.0,0.0,44,0.00,BKN,,0.00,WeatherDisplay:10.37,2013-10-29 22:12:00,
2013-10-29 18:17:00,44.1,24.1,30.34,West,270,0.0,0.0,45,0.00,BKN,,0.00,WeatherDisplay:10.37,2013-10-29 22:17:00,
2013-10-29 18:22:00,43.7,24.2,30.34,West,270,0.0,0.0,46,0.00,BKN,,0.00,WeatherDisplay:10.37,2013-10-29 22:22:00,
2013-10-29 18:27:00,43.3,23.9,30.33,SW,225,0.0,0.0,46,0.00,BKN,,0.00,WeatherDisplay:10.37,2013-10-29 22:27:00,
2013-10-29 18:32:00,43.2,24.3,30.33,SW,225,0.0,0.0,47,0.00,BKN,,0.00,WeatherDisplay:10.37,2013-10-29 22:32:00,
2013-10-29 18:37:00,42.8,24.9,30.33,SSW,202,0.0,0.0,49,0.00,BKN,,0.00,WeatherDisplay:10.37,2013-10-29 22:37:00,
2013-10-29 18:42:00,42.4,24.6,30.33,SSW,202,0.0,0.0,49,0.00,BKN,,0.00,WeatherDisplay:10.37,2013-10-29 22:42:00,
2013-10-29 18:47:00,42.4,25.1,30.33,WSW,248,0.0,0.0,50,0.00,BKN,,0.00,WeatherDisplay:10.37,2013-10-29 22:47:00,
2013-10-29 18:52:00,42.3,25.0,30.33,West,270,0.0,0.0,50,0.00,BKN,,0.00,WeatherDisplay:10.37,2013-10-29 22:52:00,
2013-10-29 18:57:00,42.1,26.2,30.33,NNW,338,0.0,0.0,53,0.00,BKN,,0.00,WeatherDisplay:10.37,2013-10-29 22:57:00,
2013-10-29 19:02:00,42.1,26.6,30.34,ESE,112,0.0,0.0,54,0.00,BKN,,0.00,WeatherDisplay:10.37,2013-10-29 23:02:00,
2013-10-29 19:07:00,41.9,26.9,30.34,West,270,1.0,1.7,55,0.00,BKN,,0.00,WeatherDisplay:10.37,2013-10-29 23:07:00,
2013-10-29 19:12:00,41.9,27.8,30.34,SSE,158,1.5,2.3,57,0.00,OVC,,0.00,WeatherDisplay:10.37,2013-10-29 23:12:00,
2013-10-29 19:17:00,41.9,27.8,30.34,West,270,0.9,2.3,57,0.00,OVC,,0.00,WeatherDisplay:10.37,2013-10-29 23:17:00,
2013-10-29 19:22:00,41.9,28.2,30.34,NW,315,1.6,2.3,58,0.00,OVC,,0.00,WeatherDisplay:10.37,2013-10-29 23:22:00,
2013-10-29 19:27:00,41.9,28.2,30.34,North,360,0.0,0.0,58,0.00,OVC,,0.00,WeatherDisplay:10.37,2013-10-29 23:27:00,
2013-10-29 19:32:00,41.7,28.4,30.34,ESE,112,1.0,1.1,59,0.00,OVC,,0.00,WeatherDisplay:10.37,2013-10-29 23:32:00,
2013-10-29 19:37:00,41.5,28.2,30.34,ESE,112,2.1,2.7,59,0.00,OVC,,0.00,WeatherDisplay:10.37,2013-10-29 23:37:00,
2013-10-29 19:42:00,41.5,28.2,30.34,East,90,1.9,2.3,59,0.00,OVC,,0.00,WeatherDisplay:10.37,2013-10-29 23:42:00,
2013-10-29 19:47:00,41.5,28.2,30.34,NE,45,1.8,2.7,59,0.00,OVC,,0.00,WeatherDisplay:10.37,2013-10-29 23:47:00,
2013-10-29 19:52:00,41.4,28.1,30.34,South,180,0.4,1.1,59,0.00,OVC,,0.00,WeatherDisplay:10.37,2013-10-29 23:52:00,
2013-10-29 19:57:00,41.2,28.4,30.34,ESE,112,0.2,1.1,60,0.00,OVC,,0.00,WeatherDisplay:10.37,2013-10-29 23:57:00,
2013-10-29 20:02:00,41.0,28.2,30.34,ESE,112,0.1,1.1,60,0.00,OVC,,0.00,WeatherDisplay:10.37,2013-10-30 00:02:00,
2013-10-29 20:07:00,41.0,28.2,30.34,ESE,112,0.0,0.0,60,0.00,OVC,,0.00,WeatherDisplay:10.37,2013-10-30 00:07:00,
2013-10-29 20:12:00,40.8,28.4,30.34,ESE,112,0.9,1.1,61,0.00,OVC,,0.00,WeatherDisplay:10.37,2013-10-30 00:12:00,
2013-10-29 20:17:00,40.8,28.4,30.33,ESE,112,0.0,2.3,61,0.00,OVC,,0.00,WeatherDisplay:10.37,2013-10-30 00:17:00,
2013-10-29 20:22:00,40.8,28.8,30.33,East,90,0.0,0.0,62,0.00,OVC,,0.00,WeatherDisplay:10.37,2013-10-30 00:22:00,
2013-10-29 20:27:00,40.8,28.8,30.34,East,90,1.1,1.7,62,0.00,OVC,,0.00,WeatherDisplay:10.37,2013-10-30 00:27:00,
2013-10-29 20:32:00,40.8,28.8,30.34,ESE,112,0.0,0.0,62,0.00,OVC,,0.00,WeatherDisplay:10.37,2013-10-30 00:32:00,
2013-10-29 20:37:00,40.8,28.8,30.34,SE,135,2.3,2.3,62,0.00,OVC,,0.00,WeatherDisplay:10.37,2013-10-30 00:37:00,
2013-10-29 20:42:00,40.8,28.8,30.33,East,90,2.4,2.7,62,0.00,OVC,,0.00,WeatherDisplay:10.37,2013-10-30 00:42:00,
2013-10-29 20:47:00,40.8,28.8,30.33,East,90,2.5,2.7,62,0.00,OVC,,0.00,WeatherDisplay:10.37,2013-10-30 00:47:00,
2013-10-29 20:52:00,40.8,28.8,30.33,East,90,2.2,2.3,62,0.00,OVC,,0.00,WeatherDisplay:10.37,2013-10-30 00:52:00,
2013-10-29 20:57:00,40.8,29.2,30.33,ESE,112,1.9,2.3,63,0.00,OVC,,0.00,WeatherDisplay:10.37,2013-10-30 00:57:00,
2013-10-29 21:02:00,40.8,29.2,30.33,ESE,112,2.3,2.3,63,0.00,OVC,,0.00,WeatherDisplay:10.37,2013-10-30 01:02:00,
2013-10-29 21:07:00,40.8,29.2,30.33,East,90,1.3,1.3,63,0.00,OVC,,0.00,WeatherDisplay:10.37,2013-10-30 01:07:00,
2013-10-29 21:12:00,40.8,29.2,30.33,ESE,112,0.0,1.1,63,0.00,OVC,,0.00,WeatherDisplay:10.37,2013-10-30 01:12:00,
2013-10-29 21:17:00,40.8,29.2,30.33,ESE,112,0.9,1.7,63,0.00,OVC,,0.00,WeatherDisplay:10.37,2013-10-30 01:17:00,
2013-10-29 21:22:00,40.8,29.6,30.33,East,90,2.2,3.2,64,0.00,OVC,,0.00,WeatherDisplay:10.37,2013-10-30 01:22:00,
2013-10-29 21:27:00,40.8,29.6,30.32,SE,135,1.7,2.3,64,0.00,OVC,,0.00,WeatherDisplay:10.37,2013-10-30 01:27:00,
2013-10-29 21:32:00,40.8,29.6,30.32,SSE,158,1.7,2.3,64,0.00,OVC,,0.00,WeatherDisplay:10.37,2013-10-30 01:32:00,
2013-10-29 21:37:00,40.8,29.6,30.32,SSE,158,1.2,2.3,64,0.00,OVC,,0.00,WeatherDisplay:10.37,2013-10-30 01:37:00,
2013-10-29 21:42:00,40.8,29.6,30.32,SSE,158,1.6,2.3,64,0.00,OVC,,0.00,WeatherDisplay:10.37,2013-10-30 01:42:00,
2013-10-29 21:47:00,40.6,29.4,30.32,SE,135,2.2,2.3,64,0.00,OVC,,0.00,WeatherDisplay:10.37,2013-10-30 01:47:00,
2013-10-29 21:52:00,40.6,29.4,30.31,SSE,158,0.7,2.3,64,0.00,OVC,,0.00,WeatherDisplay:10.37,2013-10-30 01:52:00,
2013-10-29 21:57:00,40.6,29.7,30.31,SE,135,0.3,1.7,65,0.00,OVC,,0.00,WeatherDisplay:10.37,2013-10-30 01:57:00,
2013-10-29 22:02:00,40.5,29.7,30.31,SSE,158,0.0,1.1,65,0.00,OVC,,0.00,WeatherDisplay:10.37,2013-10-30 02:02:00,
2013-10-29 22:07:00,40.5,29.7,30.31,SSE,158,0.0,1.1,65,0.00,OVC,,0.00,WeatherDisplay:10.37,2013-10-30 02:07:00,
2013-10-29 22:12:00,40.5,29.7,30.31,SSE,158,1.8,2.3,65,0.00,OVC,,0.00,WeatherDisplay:10.37,2013-10-30 02:12:00,
2013-10-29 22:17:00,40.5,29.7,30.31,SSE,158,2.3,2.7,65,0.00,OVC,,0.00,WeatherDisplay:10.37,2013-10-30 02:17:00,
2013-10-29 22:22:00,40.5,29.7,30.31,SSE,158,1.9,2.3,65,0.00,OVC,,0.00,WeatherDisplay:10.37,2013-10-30 02:22:00,
2013-10-29 22:27:00,40.5,29.7,30.30,SSE,158,2.5,3.5,65,0.00,OVC,,0.00,WeatherDisplay:10.37,2013-10-30 02:27:00,
2013-10-29 22:32:00,40.5,30.0,30.30,SSE,158,2.5,2.7,66,0.00,OVC,,0.00,WeatherDisplay:10.37,2013-10-30 02:32:00,
2013-10-29 22:37:00,40.5,30.0,30.30,SE,135,2.2,2.7,66,0.00,OVC,,0.00,WeatherDisplay:10.37,2013-10-30 02:37:00,
2013-10-29 22:42:00,40.5,30.0,30.30,South,180,2.3,2.3,66,0.00,OVC,,0.00,WeatherDisplay:10.37,2013-10-30 02:42:00,
2013-10-29 22:47:00,40.5,30.0,30.30,SE,135,1.9,2.2,66,0.00,OVC,,0.00,WeatherDisplay:10.37,2013-10-30 02:47:00,
2013-10-29 22:52:00,40.5,30.0,30.30,SSE,158,0.1,2.2,66,0.00,OVC,,0.00,WeatherDisplay:10.37,2013-10-30 02:52:00,
2013-10-29 22:57:00,40.5,30.0,30.30,SSE,158,1.9,2.3,66,0.00,OVC,,0.00,WeatherDisplay:10.37,2013-10-30 02:57:00,
2013-10-29 23:02:00,40.5,30.0,30.30,SE,135,1.5,1.7,66,0.00,OVC,,0.00,WeatherDisplay:10.37,2013-10-30 03:02:00,
2013-10-29 23:07:00,40.5,30.0,30.29,SSE,158,0.0,1.1,66,0.00,OVC,,0.00,WeatherDisplay:10.37,2013-10-30 03:07:00,
2013-10-29 23:12:00,40.5,30.0,30.29,SSE,158,0.0,0.0,66,0.00,OVC,,0.00,WeatherDisplay:10.37,2013-10-30 03:12:00,
2013-10-29 23:17:00,40.5,30.0,30.29,SE,135,0.0,0.0,66,0.00,OVC,,0.00,WeatherDisplay:10.37,2013-10-30 03:17:00,
2013-10-29 23:22:00,40.5,30.0,30.29,SSE,158,0.0,0.0,66,0.00,OVC,,0.00,WeatherDisplay:10.37,2013-10-30 03:22:00,
2013-10-29 23:27:00,40.6,29.7,30.29,South,180,1.2,1.2,65,0.00,OVC,,0.00,WeatherDisplay:10.37,2013-10-30 03:27:00,
2013-10-29 23:32:00,40.6,29.7,30.29,SSE,158,1.0,1.1,65,0.00,OVC,,0.00,WeatherDisplay:10.37,2013-10-30 03:32:00,
2013-10-29 23:37:00,40.6,29.7,30.29,South,180,0.0,0.0,65,0.00,OVC,,0.00,WeatherDisplay:10.37,2013-10-30 03:37:00,
2013-10-29 23:42:00,40.6,29.7,30.28,SSE,158,0.0,0.0,65,0.00,OVC,,0.00,WeatherDisplay:10.37,2013-10-30 03:42:00,
2013-10-29 23:47:00,40.8,29.9,30.28,SSE,158,2.1,2.2,65,0.00,OVC,,0.00,WeatherDisplay:10.37,2013-10-30 03:47:00,
2013-10-29 23:52:00,40.8,29.9,30.28,East,90,2.2,2.3,65,0.00,OVC,,0.00,WeatherDisplay:10.37,2013-10-30 03:52:00,
2013-10-29 23:57:00,40.8,29.9,30.28,ENE,68,1.6,1.7,65,0.00,OVC,,0.00,WeatherDisplay:10.37,2013-10-30 03:57:00,